sensor_id;sensor_type;location;lat;lon;timestamp;temperature;humidity
17986;DHT22;9118;48.122;11.546;2022-08-25T00:01:56;19.40;99.90
17986;DHT22;9118;48.122;11.546;2022-08-25T00:04:25;19.30;99.90
17986;DHT22;9118;48.122;11.546;2022-08-25T00:06:55;19.30;99.90
17986;DHT22;9118;48.122;11.546;2022-08-25T00:09:25;19.30;99.90
17986;DHT22;9118;48.122;11.546;2022-08-25T00:11:53;19.20;99.90
17986;DHT22;9118;48.122;11.546;2022-08-25T00:14:22;19.20;99.90
17986;DHT22;9118;48.122;11.546;2022-08-25T00:16:52;19.20;99.90
17986;DHT22;9118;48.122;11.546;2022-08-25T00:19:21;19.20;99.90
17986;DHT22;9118;48.122;11.546;2022-08-25T00:21:49;19.20;99.90
17986;DHT22;9118;48.122;11.546;2022-08-25T00:24:18;19.20;99.90
17986;DHT22;9118;48.122;11.546;2022-08-25T00:26:49;19.10;99.90
17986;DHT22;9118;48.122;11.546;2022-08-25T00:29:17;19.10;99.90
17986;DHT22;9118;48.122;11.546;2022-08-25T00:31:45;19.10;99.90
17986;DHT22;9118;48.122;11.546;2022-08-25T00:34:15;19.00;99.90
17986;DHT22;9118;48.122;11.546;2022-08-25T00:36:43;19.00;99.90
17986;DHT22;9118;48.122;11.546;2022-08-25T00:39:12;19.00;99.90
17986;DHT22;9118;48.122;11.546;2022-08-25T00:41:42;19.00;99.90
17986;DHT22;9118;48.122;11.546;2022-08-25T00:44:12;18.90;99.90
17986;DHT22;9118;48.122;11.546;2022-08-25T00:46:44;18.90;99.90
17986;DHT22;9118;48.122;11.546;2022-08-25T00:49:15;18.90;99.90
17986;DHT22;9118;48.122;11.546;2022-08-25T00:51:46;18.90;99.90
17986;DHT22;9118;48.122;11.546;2022-08-25T00:54:17;18.90;99.90
17986;DHT22;9118;48.122;11.546;2022-08-25T00:56:47;18.90;99.90
17986;DHT22;9118;48.122;11.546;2022-08-25T00:59:22;18.80;99.90
17986;DHT22;9118;48.122;11.546;2022-08-25T01:01:53;18.80;99.90
17986;DHT22;9118;48.122;11.546;2022-08-25T01:04:20;18.80;99.90
17986;DHT22;9118;48.122;11.546;2022-08-25T01:06:48;18.80;99.90
17986;DHT22;9118;48.122;11.546;2022-08-25T01:09:16;18.70;99.90
17986;DHT22;9118;48.122;11.546;2022-08-25T01:11:45;18.70;99.90
17986;DHT22;9118;48.122;11.546;2022-08-25T01:14:15;18.70;99.90
17986;DHT22;9118;48.122;11.546;2022-08-25T01:16:45;18.70;99.90
17986;DHT22;9118;48.122;11.546;2022-08-25T01:19:14;18.70;99.90
17986;DHT22;9118;48.122;11.546;2022-08-25T01:21:45;18.70;99.90
17986;DHT22;9118;48.122;11.546;2022-08-25T01:24:22;18.70;99.90
17986;DHT22;9118;48.122;11.546;2022-08-25T01:26:51;18.60;99.90
17986;DHT22;9118;48.122;11.546;2022-08-25T01:29:18;18.60;99.90
17986;DHT22;9118;48.122;11.546;2022-08-25T01:31:53;18.60;99.90
17986;DHT22;9118;48.122;11.546;2022-08-25T01:34:23;18.60;99.90
17986;DHT22;9118;48.122;11.546;2022-08-25T01:36:53;18.60;99.90
17986;DHT22;9118;48.122;11.546;2022-08-25T01:39:20;18.60;99.90
17986;DHT22;9118;48.122;11.546;2022-08-25T01:42:07;18.50;99.90
17986;DHT22;9118;48.122;11.546;2022-08-25T01:44:38;18.50;99.90
17986;DHT22;9118;48.122;11.546;2022-08-25T01:47:07;18.50;99.90
17986;DHT22;9118;48.122;11.546;2022-08-25T01:49:34;18.50;99.90
17986;DHT22;9118;48.122;11.546;2022-08-25T01:52:11;18.40;99.90
17986;DHT22;9118;48.122;11.546;2022-08-25T01:54:38;18.40;99.90
17986;DHT22;9118;48.122;11.546;2022-08-25T01:57:05;18.40;99.90
17986;DHT22;9118;48.122;11.546;2022-08-25T01:59:34;18.40;99.90
17986;DHT22;9118;48.122;11.546;2022-08-25T02:02:01;18.30;99.90
17986;DHT22;9118;48.122;11.546;2022-08-25T02:04:28;18.70;99.90
17986;DHT22;9118;48.122;11.546;2022-08-25T02:06:57;18.30;99.90
17986;DHT22;9118;48.122;11.546;2022-08-25T02:09:26;17.60;99.90
17986;DHT22;9118;48.122;11.546;2022-08-25T02:11:56;18.30;99.90
17986;DHT22;9118;48.122;11.546;2022-08-25T02:14:24;18.30;99.90
17986;DHT22;9118;48.122;11.546;2022-08-25T02:16:52;18.30;99.90
17986;DHT22;9118;48.122;11.546;2022-08-25T02:19:22;18.30;99.90
17986;DHT22;9118;48.122;11.546;2022-08-25T02:21:50;18.20;99.90
17986;DHT22;9118;48.122;11.546;2022-08-25T02:24:18;18.20;99.90
17986;DHT22;9118;48.122;11.546;2022-08-25T02:26:47;18.20;99.90
17986;DHT22;9118;48.122;11.546;2022-08-25T02:29:15;18.20;99.90
17986;DHT22;9118;48.122;11.546;2022-08-25T02:31:43;18.20;99.90
17986;DHT22;9118;48.122;11.546;2022-08-25T02:34:11;18.10;99.90
17986;DHT22;9118;48.122;11.546;2022-08-25T02:36:39;18.10;99.90
17986;DHT22;9118;48.122;11.546;2022-08-25T02:39:08;18.10;99.90
17986;DHT22;9118;48.122;11.546;2022-08-25T02:41:36;18.10;99.90
17986;DHT22;9118;48.122;11.546;2022-08-25T02:44:05;18.00;99.90
17986;DHT22;9118;48.122;11.546;2022-08-25T02:46:33;18.00;99.90
17986;DHT22;9118;48.122;11.546;2022-08-25T02:49:01;18.00;99.90
17986;DHT22;9118;48.122;11.546;2022-08-25T02:51:28;18.00;99.90
17986;DHT22;9118;48.122;11.546;2022-08-25T02:53:58;18.00;99.90
17986;DHT22;9118;48.122;11.546;2022-08-25T02:56:27;18.00;99.90
17986;DHT22;9118;48.122;11.546;2022-08-25T02:58:55;18.00;99.90
17986;DHT22;9118;48.122;11.546;2022-08-25T03:01:23;18.00;99.90
17986;DHT22;9118;48.122;11.546;2022-08-25T03:03:51;17.90;99.90
17986;DHT22;9118;48.122;11.546;2022-08-25T03:06:20;17.90;99.90
17986;DHT22;9118;48.122;11.546;2022-08-25T03:08:48;17.90;99.90
17986;DHT22;9118;48.122;11.546;2022-08-25T03:11:17;17.90;99.90
17986;DHT22;9118;48.122;11.546;2022-08-25T03:13:44;17.90;99.90
17986;DHT22;9118;48.122;11.546;2022-08-25T03:16:12;17.80;99.90
17986;DHT22;9118;48.122;11.546;2022-08-25T03:18:41;17.80;99.90
17986;DHT22;9118;48.122;11.546;2022-08-25T03:21:10;17.80;99.90
17986;DHT22;9118;48.122;11.546;2022-08-25T03:23:39;17.80;99.90
17986;DHT22;9118;48.122;11.546;2022-08-25T03:26:06;17.70;99.90
17986;DHT22;9118;48.122;11.546;2022-08-25T03:28:51;17.70;99.90
17986;DHT22;9118;48.122;11.546;2022-08-25T03:31:20;17.60;99.90
17986;DHT22;9118;48.122;11.546;2022-08-25T03:33:48;17.70;99.90
17986;DHT22;9118;48.122;11.546;2022-08-25T03:36:16;17.70;99.90
17986;DHT22;9118;48.122;11.546;2022-08-25T03:38:43;17.70;99.90
17986;DHT22;9118;48.122;11.546;2022-08-25T03:41:13;17.60;99.90
17986;DHT22;9118;48.122;11.546;2022-08-25T03:43:41;17.60;99.90
17986;DHT22;9118;48.122;11.546;2022-08-25T03:46:15;17.60;99.90
17986;DHT22;9118;48.122;11.546;2022-08-25T03:48:44;17.60;99.90
17986;DHT22;9118;48.122;11.546;2022-08-25T03:51:18;17.60;99.90
17986;DHT22;9118;48.122;11.546;2022-08-25T03:53:46;17.60;99.90
17986;DHT22;9118;48.122;11.546;2022-08-25T03:56:15;17.60;99.90
17986;DHT22;9118;48.122;11.546;2022-08-25T03:58:44;17.60;99.90
17986;DHT22;9118;48.122;11.546;2022-08-25T04:01:12;17.60;99.90
17986;DHT22;9118;48.122;11.546;2022-08-25T04:03:40;17.60;99.90
17986;DHT22;9118;48.122;11.546;2022-08-25T04:06:08;17.50;99.90
17986;DHT22;9118;48.122;11.546;2022-08-25T04:08:37;17.50;99.90
17986;DHT22;9118;48.122;11.546;2022-08-25T04:11:06;17.50;99.90
17986;DHT22;9118;48.122;11.546;2022-08-25T04:13:34;17.50;99.90
17986;DHT22;9118;48.122;11.546;2022-08-25T04:16:02;17.50;99.90
17986;DHT22;9118;48.122;11.546;2022-08-25T04:18:31;17.50;99.90
17986;DHT22;9118;48.122;11.546;2022-08-25T04:21:03;17.50;99.90
17986;DHT22;9118;48.122;11.546;2022-08-25T04:23:34;17.50;99.90
17986;DHT22;9118;48.122;11.546;2022-08-25T04:26:07;17.50;99.90
17986;DHT22;9118;48.122;11.546;2022-08-25T04:28:34;17.40;99.90
17986;DHT22;9118;48.122;11.546;2022-08-25T04:31:05;17.40;99.90
17986;DHT22;9118;48.122;11.546;2022-08-25T04:33:36;17.40;99.90
17986;DHT22;9118;48.122;11.546;2022-08-25T04:36:05;17.40;99.90
17986;DHT22;9118;48.122;11.546;2022-08-25T04:38:36;17.40;99.90
17986;DHT22;9118;48.122;11.546;2022-08-25T04:41:08;17.40;99.90
17986;DHT22;9118;48.122;11.546;2022-08-25T04:43:37;17.40;99.90
17986;DHT22;9118;48.122;11.546;2022-08-25T04:46:06;17.40;99.90
17986;DHT22;9118;48.122;11.546;2022-08-25T04:48:34;17.40;99.90
17986;DHT22;9118;48.122;11.546;2022-08-25T04:51:03;17.40;99.90
17986;DHT22;9118;48.122;11.546;2022-08-25T04:53:31;17.40;99.90
17986;DHT22;9118;48.122;11.546;2022-08-25T04:56:00;17.40;99.90
17986;DHT22;9118;48.122;11.546;2022-08-25T04:58:31;17.40;99.90
17986;DHT22;9118;48.122;11.546;2022-08-25T05:01:01;17.50;99.90
17986;DHT22;9118;48.122;11.546;2022-08-25T05:03:28;17.50;99.90
17986;DHT22;9118;48.122;11.546;2022-08-25T05:05:57;17.50;99.90
17986;DHT22;9118;48.122;11.546;2022-08-25T05:08:24;17.50;99.90
17986;DHT22;9118;48.122;11.546;2022-08-25T05:10:52;17.50;99.90
17986;DHT22;9118;48.122;11.546;2022-08-25T05:13:21;17.50;99.90
17986;DHT22;9118;48.122;11.546;2022-08-25T05:16:04;17.60;99.90
17986;DHT22;9118;48.122;11.546;2022-08-25T05:18:33;17.50;99.90
17986;DHT22;9118;48.122;11.546;2022-08-25T05:21:02;17.60;99.90
17986;DHT22;9118;48.122;11.546;2022-08-25T05:23:30;17.50;99.90
17986;DHT22;9118;48.122;11.546;2022-08-25T05:26:02;17.60;99.90
17986;DHT22;9118;48.122;11.546;2022-08-25T05:28:29;17.60;99.90
17986;DHT22;9118;48.122;11.546;2022-08-25T05:30:59;17.60;99.90
17986;DHT22;9118;48.122;11.546;2022-08-25T05:33:27;17.70;99.90
17986;DHT22;9118;48.122;11.546;2022-08-25T05:35:56;17.70;99.90
17986;DHT22;9118;48.122;11.546;2022-08-25T05:38:23;17.60;99.90
17986;DHT22;9118;48.122;11.546;2022-08-25T05:40:51;17.60;99.90
17986;DHT22;9118;48.122;11.546;2022-08-25T05:43:22;17.60;99.90
17986;DHT22;9118;48.122;11.546;2022-08-25T05:46:14;17.70;99.90
17986;DHT22;9118;48.122;11.546;2022-08-25T05:48:45;17.70;99.90
17986;DHT22;9118;48.122;11.546;2022-08-25T05:51:13;17.70;99.90
17986;DHT22;9118;48.122;11.546;2022-08-25T05:53:52;17.70;99.90
17986;DHT22;9118;48.122;11.546;2022-08-25T05:56:31;17.90;99.90
17986;DHT22;9118;48.122;11.546;2022-08-25T05:59:01;17.80;99.90
17986;DHT22;9118;48.122;11.546;2022-08-25T06:01:35;17.90;99.90
17986;DHT22;9118;48.122;11.546;2022-08-25T06:04:20;17.90;99.90
17986;DHT22;9118;48.122;11.546;2022-08-25T06:06:59;17.90;99.90
17986;DHT22;9118;48.122;11.546;2022-08-25T06:09:26;17.90;99.90
17986;DHT22;9118;48.122;11.546;2022-08-25T06:11:54;18.30;99.90
17986;DHT22;9118;48.122;11.546;2022-08-25T06:14:23;18.00;99.90
17986;DHT22;9118;48.122;11.546;2022-08-25T06:16:52;18.10;99.90
17986;DHT22;9118;48.122;11.546;2022-08-25T06:19:19;18.10;99.90
17986;DHT22;9118;48.122;11.546;2022-08-25T06:21:51;18.20;99.90
17986;DHT22;9118;48.122;11.546;2022-08-25T06:24:19;18.20;99.90
17986;DHT22;9118;48.122;11.546;2022-08-25T06:26:46;18.30;99.90
17986;DHT22;9118;48.122;11.546;2022-08-25T06:29:15;18.40;99.90
17986;DHT22;9118;48.122;11.546;2022-08-25T06:31:43;18.40;99.90
17986;DHT22;9118;48.122;11.546;2022-08-25T06:34:13;18.50;99.90
17986;DHT22;9118;48.122;11.546;2022-08-25T06:36:40;18.40;99.90
17986;DHT22;9118;48.122;11.546;2022-08-25T06:39:08;18.40;99.90
17986;DHT22;9118;48.122;11.546;2022-08-25T06:41:39;18.40;99.90
17986;DHT22;9118;48.122;11.546;2022-08-25T06:44:19;19.60;99.90
17986;DHT22;9118;48.122;11.546;2022-08-25T06:46:46;18.50;99.90
17986;DHT22;9118;48.122;11.546;2022-08-25T06:49:15;18.50;99.90
17986;DHT22;9118;48.122;11.546;2022-08-25T06:51:43;18.60;99.90
17986;DHT22;9118;48.122;11.546;2022-08-25T06:54:12;18.70;99.90
17986;DHT22;9118;48.122;11.546;2022-08-25T06:56:40;18.70;99.90
17986;DHT22;9118;48.122;11.546;2022-08-25T06:59:09;18.70;99.90
17986;DHT22;9118;48.122;11.546;2022-08-25T07:01:37;18.70;99.90
17986;DHT22;9118;48.122;11.546;2022-08-25T07:04:06;18.80;99.90
17986;DHT22;9118;48.122;11.546;2022-08-25T07:06:35;18.90;99.90
17986;DHT22;9118;48.122;11.546;2022-08-25T07:09:04;18.90;99.90
17986;DHT22;9118;48.122;11.546;2022-08-25T07:11:32;19.00;99.90
17986;DHT22;9118;48.122;11.546;2022-08-25T07:14:00;19.10;99.90
17986;DHT22;9118;48.122;11.546;2022-08-25T07:16:30;19.20;99.90
17986;DHT22;9118;48.122;11.546;2022-08-25T07:18:58;19.30;99.90
17986;DHT22;9118;48.122;11.546;2022-08-25T07:21:28;19.30;99.90
17986;DHT22;9118;48.122;11.546;2022-08-25T07:23:57;19.40;99.90
17986;DHT22;9118;48.122;11.546;2022-08-25T07:26:27;19.50;99.90
17986;DHT22;9118;48.122;11.546;2022-08-25T07:28:55;19.60;99.90
17986;DHT22;9118;48.122;11.546;2022-08-25T07:31:23;19.70;99.90
17986;DHT22;9118;48.122;11.546;2022-08-25T07:33:50;19.70;99.90
17986;DHT22;9118;48.122;11.546;2022-08-25T07:36:35;19.80;99.90
17986;DHT22;9118;48.122;11.546;2022-08-25T07:39:03;19.90;99.90
17986;DHT22;9118;48.122;11.546;2022-08-25T07:41:31;19.90;99.90
17986;DHT22;9118;48.122;11.546;2022-08-25T07:43:59;20.00;99.90
17986;DHT22;9118;48.122;11.546;2022-08-25T07:46:28;20.00;99.90
17986;DHT22;9118;48.122;11.546;2022-08-25T07:48:55;20.10;99.90
17986;DHT22;9118;48.122;11.546;2022-08-25T07:51:22;20.20;99.90
17986;DHT22;9118;48.122;11.546;2022-08-25T07:53:51;20.20;99.90
17986;DHT22;9118;48.122;11.546;2022-08-25T07:56:20;20.30;99.90
17986;DHT22;9118;48.122;11.546;2022-08-25T07:58:47;20.30;99.90
17986;DHT22;9118;48.122;11.546;2022-08-25T08:01:16;20.40;99.90
17986;DHT22;9118;48.122;11.546;2022-08-25T08:03:43;20.40;99.90
17986;DHT22;9118;48.122;11.546;2022-08-25T08:06:12;20.50;99.90
17986;DHT22;9118;48.122;11.546;2022-08-25T08:08:52;20.60;99.90
17986;DHT22;9118;48.122;11.546;2022-08-25T08:11:36;20.70;99.90
17986;DHT22;9118;48.122;11.546;2022-08-25T08:14:10;20.70;99.90
17986;DHT22;9118;48.122;11.546;2022-08-25T08:16:39;20.80;99.90
17986;DHT22;9118;48.122;11.546;2022-08-25T08:19:06;20.90;99.90
17986;DHT22;9118;48.122;11.546;2022-08-25T08:21:34;20.90;99.90
17986;DHT22;9118;48.122;11.546;2022-08-25T08:24:14;21.00;99.90
17986;DHT22;9118;48.122;11.546;2022-08-25T08:27:14;21.20;99.90
17986;DHT22;9118;48.122;11.546;2022-08-25T08:29:41;21.10;99.90
17986;DHT22;9118;48.122;11.546;2022-08-25T08:32:12;21.20;99.90
17986;DHT22;9118;48.122;11.546;2022-08-25T08:34:42;21.20;99.90
17986;DHT22;9118;48.122;11.546;2022-08-25T08:37:23;21.30;99.90
17986;DHT22;9118;48.122;11.546;2022-08-25T08:39:50;21.30;99.90
17986;DHT22;9118;48.122;11.546;2022-08-25T08:42:31;21.40;99.90
17986;DHT22;9118;48.122;11.546;2022-08-25T08:45:06;21.50;99.90
17986;DHT22;9118;48.122;11.546;2022-08-25T08:47:46;21.50;99.90
17986;DHT22;9118;48.122;11.546;2022-08-25T08:50:24;21.60;99.90
17986;DHT22;9118;48.122;11.546;2022-08-25T08:52:57;21.70;99.90
17986;DHT22;9118;48.122;11.546;2022-08-25T08:55:36;21.70;99.90
17986;DHT22;9118;48.122;11.546;2022-08-25T08:58:17;21.80;99.90
17986;DHT22;9118;48.122;11.546;2022-08-25T09:00:48;21.90;99.90
17986;DHT22;9118;48.122;11.546;2022-08-25T09:03:27;21.90;99.90
17986;DHT22;9118;48.122;11.546;2022-08-25T09:05:58;22.00;99.90
17986;DHT22;9118;48.122;11.546;2022-08-25T09:08:26;22.10;99.90
17986;DHT22;9118;48.122;11.546;2022-08-25T09:11:00;22.10;99.90
17986;DHT22;9118;48.122;11.546;2022-08-25T09:13:42;22.10;99.90
17986;DHT22;9118;48.122;11.546;2022-08-25T09:16:19;22.20;99.90
17986;DHT22;9118;48.122;11.546;2022-08-25T09:19:19;22.30;99.90
17986;DHT22;9118;48.122;11.546;2022-08-25T09:21:56;22.30;99.90
17986;DHT22;9118;48.122;11.546;2022-08-25T09:24:39;22.40;99.90
17986;DHT22;9118;48.122;11.546;2022-08-25T09:27:16;22.50;99.90
17986;DHT22;9118;48.122;11.546;2022-08-25T09:29:56;22.60;99.90
17986;DHT22;9118;48.122;11.546;2022-08-25T09:32:27;22.60;99.90
17986;DHT22;9118;48.122;11.546;2022-08-25T09:34:54;22.60;99.90
17986;DHT22;9118;48.122;11.546;2022-08-25T09:37:25;22.70;99.90
17986;DHT22;9118;48.122;11.546;2022-08-25T09:39:52;22.70;99.90
17986;DHT22;9118;48.122;11.546;2022-08-25T09:42:19;22.70;99.90
17986;DHT22;9118;48.122;11.546;2022-08-25T09:44:48;22.80;99.90
17986;DHT22;9118;48.122;11.546;2022-08-25T09:47:23;22.80;99.90
17986;DHT22;9118;48.122;11.546;2022-08-25T09:49:56;22.90;99.90
17986;DHT22;9118;48.122;11.546;2022-08-25T09:52:36;23.00;99.90
17986;DHT22;9118;48.122;11.546;2022-08-25T09:55:42;23.00;99.90
17986;DHT22;9118;48.122;11.546;2022-08-25T09:58:24;23.00;99.90
17986;DHT22;9118;48.122;11.546;2022-08-25T10:01:12;23.20;99.90
17986;DHT22;9118;48.122;11.546;2022-08-25T10:04:24;23.10;99.90
17986;DHT22;9118;48.122;11.546;2022-08-25T10:06:51;24.10;99.90
17986;DHT22;9118;48.122;11.546;2022-08-25T10:09:25;23.30;99.90
17986;DHT22;9118;48.122;11.546;2022-08-25T10:11:54;23.40;99.90
17986;DHT22;9118;48.122;11.546;2022-08-25T10:14:28;23.40;99.90
17986;DHT22;9118;48.122;11.546;2022-08-25T10:17:15;23.50;99.90
17986;DHT22;9118;48.122;11.546;2022-08-25T10:19:49;23.60;99.90
17986;DHT22;9118;48.122;11.546;2022-08-25T10:22:22;23.70;99.90
17986;DHT22;9118;48.122;11.546;2022-08-25T10:24:50;23.70;99.90
17986;DHT22;9118;48.122;11.546;2022-08-25T10:27:22;23.80;99.90
17986;DHT22;9118;48.122;11.546;2022-08-25T10:30:15;23.90;99.90
17986;DHT22;9118;48.122;11.546;2022-08-25T10:33:07;23.90;99.90
17986;DHT22;9118;48.122;11.546;2022-08-25T10:35:44;24.00;99.90
17986;DHT22;9118;48.122;11.546;2022-08-25T10:41:28;24.10;99.90
17986;DHT22;9118;48.122;11.546;2022-08-25T10:44:08;24.20;99.90
17986;DHT22;9118;48.122;11.546;2022-08-25T10:47:11;24.30;99.90
17986;DHT22;9118;48.122;11.546;2022-08-25T10:49:46;24.40;99.90
17986;DHT22;9118;48.122;11.546;2022-08-25T10:52:17;24.30;99.90
17986;DHT22;9118;48.122;11.546;2022-08-25T10:55:03;24.30;99.90
17986;DHT22;9118;48.122;11.546;2022-08-25T10:57:43;24.40;99.90
17986;DHT22;9118;48.122;11.546;2022-08-25T11:00:14;24.40;99.90
17986;DHT22;9118;48.122;11.546;2022-08-25T11:03:03;24.50;99.90
17986;DHT22;9118;48.122;11.546;2022-08-25T11:05:41;24.50;99.90
17986;DHT22;9118;48.122;11.546;2022-08-25T11:08:13;24.60;99.90
17986;DHT22;9118;48.122;11.546;2022-08-25T11:10:47;24.60;99.90
17986;DHT22;9118;48.122;11.546;2022-08-25T11:13:21;24.70;99.90
17986;DHT22;9118;48.122;11.546;2022-08-25T11:15:53;24.90;99.90
17986;DHT22;9118;48.122;11.546;2022-08-25T11:18:21;25.10;99.90
17986;DHT22;9118;48.122;11.546;2022-08-25T11:21:01;25.10;99.90
17986;DHT22;9118;48.122;11.546;2022-08-25T11:23:35;25.20;99.90
17986;DHT22;9118;48.122;11.546;2022-08-25T11:26:07;25.20;99.90
17986;DHT22;9118;48.122;11.546;2022-08-25T11:28:49;25.20;99.90
17986;DHT22;9118;48.122;11.546;2022-08-25T11:31:20;25.30;99.90
17986;DHT22;9118;48.122;11.546;2022-08-25T11:33:52;25.40;99.90
17986;DHT22;9118;48.122;11.546;2022-08-25T11:36:36;25.50;99.90
17986;DHT22;9118;48.122;11.546;2022-08-25T11:39:15;25.60;99.90
17986;DHT22;9118;48.122;11.546;2022-08-25T11:42:03;25.60;99.90
17986;DHT22;9118;48.122;11.546;2022-08-25T11:44:50;25.70;99.90
17986;DHT22;9118;48.122;11.546;2022-08-25T11:47:33;25.70;99.90
17986;DHT22;9118;48.122;11.546;2022-08-25T11:50:31;25.80;99.90
17986;DHT22;9118;48.122;11.546;2022-08-25T12:06:18;26.10;99.90
17986;DHT22;9118;48.122;11.546;2022-08-25T12:08:51;26.20;99.90
17986;DHT22;9118;48.122;11.546;2022-08-25T12:11:42;26.30;99.90
17986;DHT22;9118;48.122;11.546;2022-08-25T12:14:17;26.40;99.90
17986;DHT22;9118;48.122;11.546;2022-08-25T12:17:06;26.30;99.90
17986;DHT22;9118;48.122;11.546;2022-08-25T12:19:58;26.40;99.90
17986;DHT22;9118;48.122;11.546;2022-08-25T12:22:55;26.50;99.90
17986;DHT22;9118;48.122;11.546;2022-08-25T12:25:42;26.60;99.90
17986;DHT22;9118;48.122;11.546;2022-08-25T12:28:30;26.70;99.90
17986;DHT22;9118;48.122;11.546;2022-08-25T12:31:07;26.70;99.90
17986;DHT22;9118;48.122;11.546;2022-08-25T12:33:48;26.70;99.90
17986;DHT22;9118;48.122;11.546;2022-08-25T12:36:26;26.90;99.90
17986;DHT22;9118;48.122;11.546;2022-08-25T12:39:17;27.00;99.90
17986;DHT22;9118;48.122;11.546;2022-08-25T12:41:55;27.10;99.90
17986;DHT22;9118;48.122;11.546;2022-08-25T12:44:39;27.10;99.90
17986;DHT22;9118;48.122;11.546;2022-08-25T12:47:24;27.10;99.90
17986;DHT22;9118;48.122;11.546;2022-08-25T12:50:34;27.10;99.90
17986;DHT22;9118;48.122;11.546;2022-08-25T12:53:16;27.20;99.90
17986;DHT22;9118;48.122;11.546;2022-08-25T12:55:50;27.30;99.90
17986;DHT22;9118;48.122;11.546;2022-08-25T12:58:19;27.30;99.90
17986;DHT22;9118;48.122;11.546;2022-08-25T13:01:00;27.40;99.90
17986;DHT22;9118;48.122;11.546;2022-08-25T13:03:53;27.50;99.90
17986;DHT22;9118;48.122;11.546;2022-08-25T13:06:38;27.60;99.90
17986;DHT22;9118;48.122;11.546;2022-08-25T13:12:29;27.70;99.90
17986;DHT22;9118;48.122;11.546;2022-08-25T13:14:57;27.80;99.90
17986;DHT22;9118;48.122;11.546;2022-08-25T13:17:26;27.60;99.90
17986;DHT22;9118;48.122;11.546;2022-08-25T13:20:14;27.30;99.90
17986;DHT22;9118;48.122;11.546;2022-08-25T13:22:45;27.30;99.90
17986;DHT22;9118;48.122;11.546;2022-08-25T13:25:20;27.30;99.90
17986;DHT22;9118;48.122;11.546;2022-08-25T13:27:58;27.20;99.90
17986;DHT22;9118;48.122;11.546;2022-08-25T13:30:28;27.30;99.90
17986;DHT22;9118;48.122;11.546;2022-08-25T13:32:56;27.20;99.90
17986;DHT22;9118;48.122;11.546;2022-08-25T13:35:26;27.30;99.90
17986;DHT22;9118;48.122;11.546;2022-08-25T13:37:53;27.30;99.90
17986;DHT22;9118;48.122;11.546;2022-08-25T13:40:25;27.30;99.90
17986;DHT22;9118;48.122;11.546;2022-08-25T13:43:03;27.30;99.90
17986;DHT22;9118;48.122;11.546;2022-08-25T13:45:34;27.40;99.90
17986;DHT22;9118;48.122;11.546;2022-08-25T13:48:03;27.40;99.90
17986;DHT22;9118;48.122;11.546;2022-08-25T13:50:44;27.40;99.90
17986;DHT22;9118;48.122;11.546;2022-08-25T13:53:14;27.50;99.90
17986;DHT22;9118;48.122;11.546;2022-08-25T13:55:48;27.60;99.90
17986;DHT22;9118;48.122;11.546;2022-08-25T13:58:20;27.70;99.90
17986;DHT22;9118;48.122;11.546;2022-08-25T14:01:00;27.80;99.90
17986;DHT22;9118;48.122;11.546;2022-08-25T14:03:30;28.00;99.90
17986;DHT22;9118;48.122;11.546;2022-08-25T14:06:08;28.00;99.90
17986;DHT22;9118;48.122;11.546;2022-08-25T14:08:37;28.10;99.90
17986;DHT22;9118;48.122;11.546;2022-08-25T14:11:07;28.10;99.90
17986;DHT22;9118;48.122;11.546;2022-08-25T14:13:39;28.20;99.90
17986;DHT22;9118;48.122;11.546;2022-08-25T14:16:10;28.40;99.90
17986;DHT22;9118;48.122;11.546;2022-08-25T14:18:47;29.20;99.90
17986;DHT22;9118;48.122;11.546;2022-08-25T14:21:20;30.70;99.90
17986;DHT22;9118;48.122;11.546;2022-08-25T14:23:48;32.30;99.90
17986;DHT22;9118;48.122;11.546;2022-08-25T14:26:15;32.60;99.90
17986;DHT22;9118;48.122;11.546;2022-08-25T14:28:44;33.50;99.90
17986;DHT22;9118;48.122;11.546;2022-08-25T14:31:15;34.50;99.90
17986;DHT22;9118;48.122;11.546;2022-08-25T14:33:50;35.50;99.90
17986;DHT22;9118;48.122;11.546;2022-08-25T14:36:21;36.70;99.90
17986;DHT22;9118;48.122;11.546;2022-08-25T14:38:48;38.00;98.30
17986;DHT22;9118;48.122;11.546;2022-08-25T14:41:16;39.10;94.90
17986;DHT22;9118;48.122;11.546;2022-08-25T14:43:44;39.90;91.10
17986;DHT22;9118;48.122;11.546;2022-08-25T14:46:16;40.50;87.40
17986;DHT22;9118;48.122;11.546;2022-08-25T14:48:46;40.90;83.60
17986;DHT22;9118;48.122;11.546;2022-08-25T14:51:17;41.20;80.60
17986;DHT22;9118;48.122;11.546;2022-08-25T14:53:44;41.20;78.40
17986;DHT22;9118;48.122;11.546;2022-08-25T14:56:12;39.90;79.10
17986;DHT22;9118;48.122;11.546;2022-08-25T14:58:39;38.30;80.90
17986;DHT22;9118;48.122;11.546;2022-08-25T15:01:11;36.70;82.70
17986;DHT22;9118;48.122;11.546;2022-08-25T15:03:41;35.40;85.70
17986;DHT22;9118;48.122;11.546;2022-08-25T15:06:10;36.50;88.00
17986;DHT22;9118;48.122;11.546;2022-08-25T15:08:39;36.60;86.60
17986;DHT22;9118;48.122;11.546;2022-08-25T15:11:24;37.10;84.60
17986;DHT22;9118;48.122;11.546;2022-08-25T15:13:51;36.50;83.80
17986;DHT22;9118;48.122;11.546;2022-08-25T15:16:24;37.50;83.10
17986;DHT22;9118;48.122;11.546;2022-08-25T15:18:53;39.40;80.10
17986;DHT22;9118;48.122;11.546;2022-08-25T15:21:20;41.20;77.20
17986;DHT22;9118;48.122;11.546;2022-08-25T15:23:48;42.40;73.90
17986;DHT22;9118;48.122;11.546;2022-08-25T15:26:16;42.10;71.80
17986;DHT22;9118;48.122;11.546;2022-08-25T15:28:46;39.90;73.60
17986;DHT22;9118;48.122;11.546;2022-08-25T15:31:15;39.70;75.70
17986;DHT22;9118;48.122;11.546;2022-08-25T15:33:44;39.90;74.60
17986;DHT22;9118;48.122;11.546;2022-08-25T15:36:13;39.60;74.90
17986;DHT22;9118;48.122;11.546;2022-08-25T15:38:43;39.20;74.80
17986;DHT22;9118;48.122;11.546;2022-08-25T15:41:10;38.50;75.50
17986;DHT22;9118;48.122;11.546;2022-08-25T15:43:39;39.20;74.70
17986;DHT22;9118;48.122;11.546;2022-08-25T15:46:08;38.60;74.70
17986;DHT22;9118;48.122;11.546;2022-08-25T15:48:39;39.10;74.50
17986;DHT22;9118;48.122;11.546;2022-08-25T15:51:07;38.10;75.50
17986;DHT22;9118;48.122;11.546;2022-08-25T15:53:37;37.30;76.30
17986;DHT22;9118;48.122;11.546;2022-08-25T15:56:05;35.70;79.90
17986;DHT22;9118;48.122;11.546;2022-08-25T15:58:33;34.50;81.70
17986;DHT22;9118;48.122;11.546;2022-08-25T16:01:04;33.50;84.60
17986;DHT22;9118;48.122;11.546;2022-08-25T16:03:31;32.90;86.40
17986;DHT22;9118;48.122;11.546;2022-08-25T16:06:02;32.40;87.70
17986;DHT22;9118;48.122;11.546;2022-08-25T16:08:31;32.00;89.30
17986;DHT22;9118;48.122;11.546;2022-08-25T16:10:58;31.80;90.90
17986;DHT22;9118;48.122;11.546;2022-08-25T16:13:25;31.50;90.80
17986;DHT22;9118;48.122;11.546;2022-08-25T16:15:52;31.20;90.60
17986;DHT22;9118;48.122;11.546;2022-08-25T16:18:19;31.00;92.00
17986;DHT22;9118;48.122;11.546;2022-08-25T16:20:47;30.70;91.30
17986;DHT22;9118;48.122;11.546;2022-08-25T16:23:16;30.60;91.60